Calvin, Texas
Current Conditions -  °F | °C
As of 1:55 AM on Saturday 25 Oct 2014 (Local Time) from KGYB Reporting Station
Clear Clear  
Wind Chill: 64°   Ceiling: Unl
Heat Index: 64°   Visibility: 10mi
Dew Point: 56°   Wind: 3mph
Humidity: 77%   Direction: 190°S
Pressure: 30.18"   Gusts: NA
Location:  30.1644°N, 97.2747°W
Report Text: KGYB 250655Z AUTO 19003KT 10SM CLR 18/14 A3018 RMK AO2 T01750135
Loading
Personal Weather Stations






























Interactive Weather Map
Tropical Storm Tracking
New forecast layout! Learn more

10-Day Weather Forecast

Advertisements
Track Severe Weather on mobile